createdAt,value
2019-01-18T00:01:56.565Z,2.70
2019-01-18T00:07:02.260Z,2.40
2019-01-18T00:12:07.927Z,2.60
2019-01-18T00:17:13.706Z,2.70
2019-01-18T00:22:19.460Z,2.60
2019-01-18T00:27:24.763Z,2.70
2019-01-18T00:32:30.077Z,2.60
2019-01-18T00:37:36.770Z,2.60
2019-01-18T00:42:42.500Z,2.60
2019-01-18T00:47:50.067Z,2.50
2019-01-18T00:52:58.681Z,2.50
2019-01-18T00:58:04.813Z,2.60
2019-01-18T01:03:12.847Z,2.70
2019-01-18T01:08:21.326Z,2.60
2019-01-18T01:13:32.437Z,2.30
2019-01-18T01:18:39.488Z,2.20
2019-01-18T01:23:47.190Z,2.70
2019-01-18T01:28:55.782Z,2.50
2019-01-18T01:34:03.080Z,2.20
2019-01-18T01:39:11.635Z,2.20
2019-01-18T01:44:19.118Z,2.30
2019-01-18T01:49:26.129Z,2.60
2019-01-18T01:54:33.735Z,2.40
2019-01-18T01:59:41.615Z,2.10
2019-01-18T02:04:49.980Z,2.40
2019-01-18T02:09:55.826Z,2.30
2019-01-18T02:15:02.907Z,2.50
2019-01-18T02:20:12.504Z,2.50
2019-01-18T02:25:20.113Z,2.40
2019-01-18T02:30:28.802Z,2.40
2019-01-18T02:35:36.149Z,2.50
2019-01-18T02:40:43.902Z,2.30
2019-01-18T02:45:50.015Z,2.40
2019-01-18T02:50:57.317Z,2.30
2019-01-18T02:56:05.632Z,2.40
2019-01-18T03:01:15.971Z,2.30
2019-01-18T03:06:23.295Z,2.30
2019-01-18T03:11:30.198Z,2.40
2019-01-18T03:16:36.028Z,2.30
2019-01-18T03:21:59.207Z,2.10
2019-01-18T03:27:06.276Z,2.20
2019-01-18T03:32:13.981Z,2.10
2019-01-18T03:37:21.379Z,2.00
2019-01-18T03:42:28.769Z,2.30
2019-01-18T03:47:36.170Z,2.30
2019-01-18T03:52:44.091Z,2.10
2019-01-18T03:58:06.705Z,2.20
2019-01-18T04:03:14.065Z,1.80
2019-01-18T04:08:21.758Z,2.10
2019-01-18T04:13:27.992Z,2.20
2019-01-18T04:18:36.118Z,2.20
2019-01-18T04:23:46.718Z,2.30
2019-01-18T04:28:54.901Z,2.20
2019-01-18T04:34:02.723Z,2.30
2019-01-18T04:39:10.548Z,2.40
2019-01-18T04:44:17.880Z,2.40
2019-01-18T04:49:25.037Z,2.30
2019-01-18T04:54:34.230Z,1.90
2019-01-18T04:59:40.136Z,1.10
2019-01-18T05:05:03.691Z,1.20
2019-01-18T05:10:09.945Z,2.10
2019-01-18T05:15:34.475Z,2.10
2019-01-18T05:20:58.384Z,2.20
2019-01-18T05:26:03.940Z,1.80
2019-01-18T05:31:08.974Z,1.70
2019-01-18T05:36:14.920Z,1.40
2019-01-18T05:41:20.046Z,1.80
2019-01-18T05:46:44.211Z,2.00
2019-01-18T05:52:08.221Z,2.10
2019-01-18T05:57:38.501Z,2.10
2019-01-18T06:03:01.933Z,2.10
2019-01-18T06:31:24.412Z,2.00
2019-01-18T06:36:29.284Z,1.90
2019-01-18T06:41:49.273Z,2.10
2019-01-18T06:46:54.500Z,2.10
2019-01-18T06:51:59.633Z,2.10
2019-01-18T06:57:04.550Z,2.20
2019-01-18T07:02:09.553Z,2.10
2019-01-18T07:07:14.587Z,2.20
2019-01-18T07:12:19.787Z,2.20
2019-01-18T07:17:24.714Z,2.10
2019-01-18T07:22:30.172Z,2.00
2019-01-18T07:27:35.250Z,2.00
2019-01-18T07:32:40.239Z,1.80
2019-01-18T07:37:45.462Z,1.80
2019-01-18T07:42:50.971Z,1.90
2019-01-18T07:48:04.054Z,1.80
2019-01-18T07:53:09.294Z,1.80
2019-01-18T07:58:15.846Z,1.50
2019-01-18T08:03:23.638Z,1.60
2019-01-18T08:08:39.355Z,2.00
2019-01-18T08:13:47.441Z,2.10
2019-01-18T08:18:54.663Z,2.30
2019-01-18T08:24:00.360Z,2.30
2019-01-18T08:29:07.441Z,2.40
2019-01-18T08:34:12.316Z,2.40
2019-01-18T08:39:17.797Z,2.40
2019-01-18T08:44:22.802Z,2.30
2019-01-18T08:49:28.137Z,2.30
2019-01-18T08:54:33.417Z,2.40
2019-01-18T09:04:43.713Z,2.50
2019-01-18T09:09:49.196Z,2.50
2019-01-18T09:14:54.106Z,2.50
2019-01-18T09:19:59.349Z,2.20
2019-01-18T09:25:04.867Z,2.30
2019-01-18T09:30:13.797Z,2.30
2019-01-18T09:35:19.952Z,2.00
2019-01-18T09:40:29.761Z,2.00
2019-01-18T09:45:36.420Z,1.70
2019-01-18T09:50:41.425Z,1.40
2019-01-18T09:55:46.941Z,1.40
2019-01-18T10:00:52.193Z,1.60
2019-01-18T10:05:57.489Z,1.70
2019-01-18T10:11:02.741Z,1.40
2019-01-18T10:16:07.853Z,1.50
2019-01-18T10:21:13.036Z,1.60
2019-01-18T10:26:18.028Z,1.90
2019-01-18T10:31:24.105Z,1.80
2019-01-18T10:36:29.473Z,1.80
2019-01-18T10:41:34.808Z,1.70
2019-01-18T10:46:39.788Z,1.80
2019-01-18T10:51:44.983Z,1.40
2019-01-18T10:56:50.038Z,1.00
2019-01-18T11:01:59.681Z,0.90
2019-01-18T11:07:02.134Z,0.90
2019-01-18T11:12:07.098Z,0.70
2019-01-18T11:17:12.465Z,0.80
2019-01-18T11:22:17.655Z,1.00
2019-01-18T11:27:22.759Z,1.50
2019-01-18T11:32:27.989Z,1.00
2019-01-18T11:37:33.329Z,0.90
2019-01-18T11:42:38.491Z,0.70
2019-01-18T11:47:43.720Z,0.60
2019-01-18T11:52:49.156Z,0.60
2019-01-18T11:57:54.121Z,0.30
2019-01-18T12:02:59.100Z,0.40
2019-01-18T12:08:04.264Z,0.40
2019-01-18T12:13:09.510Z,0.50
2019-01-18T12:18:14.801Z,0.40
2019-01-18T12:23:19.841Z,0.40
2019-01-18T12:28:25.046Z,0.40
2019-01-18T12:33:30.230Z,0.70
2019-01-18T12:38:36.120Z,1.10
2019-01-18T12:43:41.253Z,1.20
2019-01-18T12:48:46.378Z,0.80
2019-01-18T12:53:52.084Z,0.80
2019-01-18T12:58:57.082Z,0.80
2019-01-18T13:04:02.257Z,0.70
2019-01-18T13:09:08.471Z,0.90
2019-01-18T13:14:13.881Z,1.20
2019-01-18T13:19:24.807Z,1.00
2019-01-18T13:24:32.398Z,0.90
2019-01-18T13:29:37.947Z,0.90
2019-01-18T13:34:43.469Z,1.00
2019-01-18T13:39:49.159Z,1.00
2019-01-18T13:44:54.614Z,1.10
2019-01-18T13:49:59.790Z,1.10
2019-01-18T13:55:05.552Z,0.90
2019-01-18T14:00:11.122Z,1.00
2019-01-18T14:05:16.999Z,2.70
2019-01-18T14:10:26.640Z,2.90
2019-01-18T14:15:34.062Z,2.00
2019-01-18T14:20:39.731Z,2.00
2019-01-18T14:25:49.821Z,1.80
2019-01-18T14:30:57.314Z,1.10
2019-01-18T14:36:04.260Z,1.20
2019-01-18T14:41:15.820Z,1.30
2019-01-18T14:46:22.592Z,1.10
2019-01-18T14:51:29.749Z,1.00
2019-01-18T14:56:37.248Z,1.00
2019-01-18T15:01:47.824Z,1.10
2019-01-18T15:06:55.277Z,1.30
2019-01-18T15:12:18.475Z,1.20
2019-01-18T15:17:25.216Z,1.10
2019-01-18T15:22:33.498Z,1.20
2019-01-18T15:27:47.367Z,1.30
2019-01-18T15:32:56.314Z,1.30
2019-01-18T15:38:04.641Z,1.40
2019-01-18T15:43:21.410Z,1.40
2019-01-18T15:48:29.775Z,1.30
2019-01-18T15:53:36.813Z,1.10
2019-01-18T15:58:43.526Z,1.00
2019-01-18T16:03:53.549Z,1.20
2019-01-18T16:09:01.194Z,1.30
2019-01-18T16:14:08.574Z,1.40
2019-01-18T16:19:18.484Z,1.50
2019-01-18T16:24:26.045Z,1.50
2019-01-18T16:29:31.852Z,1.40
2019-01-18T16:34:44.562Z,1.50
2019-01-18T16:40:01.637Z,1.60
2019-01-18T16:45:09.782Z,1.60
2019-01-18T16:50:22.704Z,1.60
2019-01-18T16:55:31.217Z,1.80
2019-01-18T17:00:38.459Z,1.50
2019-01-18T17:05:44.095Z,1.60
2019-01-18T17:10:49.294Z,1.50
2019-01-18T17:15:57.588Z,1.60
2019-01-18T17:21:03.128Z,1.70
2019-01-18T17:26:08.467Z,1.70
2019-01-18T17:31:32.750Z,1.80
2019-01-18T17:36:46.652Z,1.90
2019-01-18T17:42:47.197Z,2.00
2019-01-18T17:48:36.551Z,2.00
2019-01-18T17:54:08.747Z,1.90
2019-01-18T17:59:24.679Z,1.80
2019-01-18T18:04:57.225Z,1.80
2019-01-18T18:10:40.050Z,1.80
2019-01-18T18:16:44.272Z,1.90
2019-01-18T18:22:53.263Z,1.60
2019-01-18T18:29:03.771Z,1.80
2019-01-18T18:35:01.318Z,2.00
2019-01-18T18:41:00.308Z,1.90
2019-01-18T18:47:11.745Z,1.90
2019-01-18T18:53:17.013Z,1.80
2019-01-18T18:59:05.417Z,1.70
2019-01-18T19:05:12.340Z,1.70
2019-01-18T19:11:20.602Z,1.90
2019-01-18T19:17:11.270Z,1.90
2019-01-18T19:23:01.700Z,1.90
2019-01-18T19:29:06.133Z,2.10
2019-01-18T19:35:03.861Z,2.10
2019-01-18T19:41:00.907Z,2.10
2019-01-18T19:47:23.328Z,1.60
2019-01-18T19:53:21.262Z,2.00
2019-01-18T19:59:24.714Z,1.80
2019-01-18T20:05:34.588Z,1.10
2019-01-18T20:11:34.974Z,1.10
2019-01-18T20:17:25.997Z,1.00
2019-01-18T20:23:58.250Z,1.10
2019-01-18T20:30:08.609Z,1.00
2019-01-18T20:36:24.062Z,1.40
2019-01-18T20:42:31.749Z,1.20
2019-01-18T20:48:43.880Z,1.60
2019-01-18T20:54:40.407Z,1.60
2019-01-18T21:00:49.244Z,1.50
2019-01-18T21:06:25.064Z,0.90
2019-01-18T21:12:24.442Z,1.00
2019-01-18T21:18:24.843Z,1.70
2019-01-18T21:24:05.262Z,1.70
2019-01-18T21:30:11.399Z,1.70
2019-01-18T21:35:55.184Z,1.80
2019-01-18T21:41:55.722Z,1.90
2019-01-18T21:47:52.674Z,1.70
2019-01-18T21:53:48.413Z,1.60
2019-01-18T21:59:49.693Z,1.20
2019-01-18T22:05:38.273Z,1.50
2019-01-18T22:11:46.842Z,1.60
2019-01-18T22:17:28.036Z,0.80
2019-01-18T22:23:39.388Z,1.10
2019-01-18T22:29:56.055Z,1.10
2019-01-18T22:36:09.495Z,1.40
2019-01-18T22:42:14.473Z,1.40
2019-01-18T22:48:05.955Z,0.70
2019-01-18T22:54:21.498Z,0.50
2019-01-18T23:01:11.912Z,0.70
2019-01-18T23:06:53.725Z,0.90
2019-01-18T23:12:57.317Z,0.70
2019-01-18T23:18:39.366Z,0.60
2019-01-18T23:24:37.132Z,0.50
2019-01-18T23:30:38.075Z,0.50
2019-01-18T23:36:38.350Z,0.60
2019-01-18T23:42:51.977Z,0.70
2019-01-18T23:48:46.582Z,0.50
2019-01-18T23:54:33.941Z,0.60
